sensor_id;sensor_type;location;lat;lon;timestamp;temperature;humidity
6078;DHT22;3067;49.470;10.394;2023-10-09T00:02:07;14.90;68.00
6078;DHT22;3067;49.470;10.394;2023-10-09T00:04:35;14.90;67.60
6078;DHT22;3067;49.470;10.394;2023-10-09T00:07:03;14.80;67.30
6078;DHT22;3067;49.470;10.394;2023-10-09T00:09:34;14.80;67.20
6078;DHT22;3067;49.470;10.394;2023-10-09T00:12:15;14.70;67.20
6078;DHT22;3067;49.470;10.394;2023-10-09T00:14:48;14.70;67.30
6078;DHT22;3067;49.470;10.394;2023-10-09T00:17:16;14.70;67.60
6078;DHT22;3067;49.470;10.394;2023-10-09T00:19:49;14.70;67.90
6078;DHT22;3067;49.470;10.394;2023-10-09T00:22:17;14.60;68.00
6078;DHT22;3067;49.470;10.394;2023-10-09T00:24:55;14.60;68.10
6078;DHT22;3067;49.470;10.394;2023-10-09T00:27:40;14.70;68.30
6078;DHT22;3067;49.470;10.394;2023-10-09T00:30:13;14.70;68.40
6078;DHT22;3067;49.470;10.394;2023-10-09T00:32:44;14.60;68.60
6078;DHT22;3067;49.470;10.394;2023-10-09T00:35:19;14.60;68.60
6078;DHT22;3067;49.470;10.394;2023-10-09T00:38:02;14.60;68.70
6078;DHT22;3067;49.470;10.394;2023-10-09T00:40:35;14.60;68.70
6078;DHT22;3067;49.470;10.394;2023-10-09T00:43:12;14.60;68.60
6078;DHT22;3067;49.470;10.394;2023-10-09T00:45:40;14.60;68.70
6078;DHT22;3067;49.470;10.394;2023-10-09T00:48:09;14.60;68.30
6078;DHT22;3067;49.470;10.394;2023-10-09T00:53:15;14.40;68.00
6078;DHT22;3067;49.470;10.394;2023-10-09T00:55:44;14.40;68.00
6078;DHT22;3067;49.470;10.394;2023-10-09T00:58:22;14.40;68.00
6078;DHT22;3067;49.470;10.394;2023-10-09T01:00:56;14.30;68.10
6078;DHT22;3067;49.470;10.394;2023-10-09T01:03:25;14.30;68.20
6078;DHT22;3067;49.470;10.394;2023-10-09T01:05:55;14.20;68.20
6078;DHT22;3067;49.470;10.394;2023-10-09T01:08:41;14.20;68.40
6078;DHT22;3067;49.470;10.394;2023-10-09T01:11:14;14.20;68.20
6078;DHT22;3067;49.470;10.394;2023-10-09T01:13:47;14.20;68.30
6078;DHT22;3067;49.470;10.394;2023-10-09T01:16:20;14.20;68.60
6078;DHT22;3067;49.470;10.394;2023-10-09T01:18:49;14.10;68.60
6078;DHT22;3067;49.470;10.394;2023-10-09T01:21:16;14.10;68.70
6078;DHT22;3067;49.470;10.394;2023-10-09T01:23:45;14.10;68.80
6078;DHT22;3067;49.470;10.394;2023-10-09T01:26:29;14.10;68.90
6078;DHT22;3067;49.470;10.394;2023-10-09T01:29:00;14.10;69.00
6078;DHT22;3067;49.470;10.394;2023-10-09T01:31:27;14.10;69.10
6078;DHT22;3067;49.470;10.394;2023-10-09T01:34:03;14.10;69.10
6078;DHT22;3067;49.470;10.394;2023-10-09T01:36:35;14.10;69.20
6078;DHT22;3067;49.470;10.394;2023-10-09T01:39:06;14.10;69.20
6078;DHT22;3067;49.470;10.394;2023-10-09T01:41:38;14.10;69.10
6078;DHT22;3067;49.470;10.394;2023-10-09T01:44:12;14.20;69.30
6078;DHT22;3067;49.470;10.394;2023-10-09T01:46:42;14.10;69.30
6078;DHT22;3067;49.470;10.394;2023-10-09T01:49:11;14.10;69.20
6078;DHT22;3067;49.470;10.394;2023-10-09T01:51:43;14.20;69.20
6078;DHT22;3067;49.470;10.394;2023-10-09T01:54:12;14.20;69.10
6078;DHT22;3067;49.470;10.394;2023-10-09T01:56:59;14.10;69.10
6078;DHT22;3067;49.470;10.394;2023-10-09T01:59:31;14.20;69.20
6078;DHT22;3067;49.470;10.394;2023-10-09T02:01:58;14.20;69.20
6078;DHT22;3067;49.470;10.394;2023-10-09T02:04:31;14.20;69.20
6078;DHT22;3067;49.470;10.394;2023-10-09T02:06:58;14.20;69.20
6078;DHT22;3067;49.470;10.394;2023-10-09T02:09:33;14.20;69.00
6078;DHT22;3067;49.470;10.394;2023-10-09T02:12:01;14.20;68.90
6078;DHT22;3067;49.470;10.394;2023-10-09T02:14:28;14.20;68.70
6078;DHT22;3067;49.470;10.394;2023-10-09T02:16:55;14.10;68.70
6078;DHT22;3067;49.470;10.394;2023-10-09T02:19:35;14.10;69.10
6078;DHT22;3067;49.470;10.394;2023-10-09T02:22:06;14.10;69.20
6078;DHT22;3067;49.470;10.394;2023-10-09T02:24:40;14.10;69.20
6078;DHT22;3067;49.470;10.394;2023-10-09T02:27:23;14.10;69.20
6078;DHT22;3067;49.470;10.394;2023-10-09T02:30:08;14.00;69.10
6078;DHT22;3067;49.470;10.394;2023-10-09T02:32:43;14.00;69.00
6078;DHT22;3067;49.470;10.394;2023-10-09T02:35:14;14.00;68.90
6078;DHT22;3067;49.470;10.394;2023-10-09T02:38:02;14.00;68.80
6078;DHT22;3067;49.470;10.394;2023-10-09T02:40:33;14.00;68.50
6078;DHT22;3067;49.470;10.394;2023-10-09T02:43:21;14.00;68.30
6078;DHT22;3067;49.470;10.394;2023-10-09T02:45:51;14.00;68.20
6078;DHT22;3067;49.470;10.394;2023-10-09T02:48:18;14.00;67.60
6078;DHT22;3067;49.470;10.394;2023-10-09T02:50:51;13.90;67.40
6078;DHT22;3067;49.470;10.394;2023-10-09T02:53:20;13.90;67.20
6078;DHT22;3067;49.470;10.394;2023-10-09T02:55:56;13.80;67.00
6078;DHT22;3067;49.470;10.394;2023-10-09T02:58:38;13.70;67.00
6078;DHT22;3067;49.470;10.394;2023-10-09T03:01:10;13.70;66.90
6078;DHT22;3067;49.470;10.394;2023-10-09T03:03:39;13.60;67.10
6078;DHT22;3067;49.470;10.394;2023-10-09T03:06:07;13.60;67.20
6078;DHT22;3067;49.470;10.394;2023-10-09T03:08:37;13.50;67.40
6078;DHT22;3067;49.470;10.394;2023-10-09T03:11:06;13.50;67.60
6078;DHT22;3067;49.470;10.394;2023-10-09T03:13:40;13.50;67.70
6078;DHT22;3067;49.470;10.394;2023-10-09T03:16:09;13.50;67.60
6078;DHT22;3067;49.470;10.394;2023-10-09T03:18:40;13.50;67.60
6078;DHT22;3067;49.470;10.394;2023-10-09T03:21:07;13.50;67.80
6078;DHT22;3067;49.470;10.394;2023-10-09T03:23:35;13.50;67.80
6078;DHT22;3067;49.470;10.394;2023-10-09T03:26:02;13.50;67.90
6078;DHT22;3067;49.470;10.394;2023-10-09T03:28:30;13.50;68.00
6078;DHT22;3067;49.470;10.394;2023-10-09T03:30:57;13.40;68.10
6078;DHT22;3067;49.470;10.394;2023-10-09T03:33:28;13.50;68.30
6078;DHT22;3067;49.470;10.394;2023-10-09T03:35:58;13.50;67.90
6078;DHT22;3067;49.470;10.394;2023-10-09T03:38:26;13.50;67.70
6078;DHT22;3067;49.470;10.394;2023-10-09T03:40:55;13.60;67.60
6078;DHT22;3067;49.470;10.394;2023-10-09T03:43:22;13.60;67.70
6078;DHT22;3067;49.470;10.394;2023-10-09T03:45:51;13.70;67.30
6078;DHT22;3067;49.470;10.394;2023-10-09T03:48:19;13.70;67.20
6078;DHT22;3067;49.470;10.394;2023-10-09T03:50:51;13.80;67.00
6078;DHT22;3067;49.470;10.394;2023-10-09T03:53:33;13.90;66.70
6078;DHT22;3067;49.470;10.394;2023-10-09T03:56:02;13.90;66.70
6078;DHT22;3067;49.470;10.394;2023-10-09T03:58:31;13.90;66.50
6078;DHT22;3067;49.470;10.394;2023-10-09T04:01:07;13.90;66.30
6078;DHT22;3067;49.470;10.394;2023-10-09T04:03:35;13.90;66.00
6078;DHT22;3067;49.470;10.394;2023-10-09T04:06:03;13.90;65.70
6078;DHT22;3067;49.470;10.394;2023-10-09T04:08:34;13.90;65.40
6078;DHT22;3067;49.470;10.394;2023-10-09T04:11:01;13.90;65.30
6078;DHT22;3067;49.470;10.394;2023-10-09T04:13:31;13.80;65.30
6078;DHT22;3067;49.470;10.394;2023-10-09T04:16:02;13.70;65.30
6078;DHT22;3067;49.470;10.394;2023-10-09T04:18:38;13.70;65.60
6078;DHT22;3067;49.470;10.394;2023-10-09T04:21:05;13.70;65.90
6078;DHT22;3067;49.470;10.394;2023-10-09T04:23:44;13.60;66.30
6078;DHT22;3067;49.470;10.394;2023-10-09T04:26:35;13.60;66.60
6078;DHT22;3067;49.470;10.394;2023-10-09T04:29:03;13.60;66.90
6078;DHT22;3067;49.470;10.394;2023-10-09T04:31:32;13.70;67.00
6078;DHT22;3067;49.470;10.394;2023-10-09T04:34:03;13.70;67.00
6078;DHT22;3067;49.470;10.394;2023-10-09T04:36:44;13.70;66.60
6078;DHT22;3067;49.470;10.394;2023-10-09T04:39:15;13.90;66.60
6078;DHT22;3067;49.470;10.394;2023-10-09T04:42:01;13.90;66.40
6078;DHT22;3067;49.470;10.394;2023-10-09T04:45:03;14.00;66.00
6078;DHT22;3067;49.470;10.394;2023-10-09T04:48:07;14.10;65.80
6078;DHT22;3067;49.470;10.394;2023-10-09T04:50:35;14.20;65.40
6078;DHT22;3067;49.470;10.394;2023-10-09T04:53:33;14.30;65.30
6078;DHT22;3067;49.470;10.394;2023-10-09T04:56:09;14.30;65.30
6078;DHT22;3067;49.470;10.394;2023-10-09T04:58:41;14.30;65.00
6078;DHT22;3067;49.470;10.394;2023-10-09T05:01:09;14.30;64.70
6078;DHT22;3067;49.470;10.394;2023-10-09T05:03:43;14.40;64.60
6078;DHT22;3067;49.470;10.394;2023-10-09T05:06:09;14.40;64.40
6078;DHT22;3067;49.470;10.394;2023-10-09T05:08:47;14.40;64.10
6078;DHT22;3067;49.470;10.394;2023-10-09T05:11:14;14.40;63.90
6078;DHT22;3067;49.470;10.394;2023-10-09T05:13:55;14.40;63.70
6078;DHT22;3067;49.470;10.394;2023-10-09T05:16:37;14.50;63.70
6078;DHT22;3067;49.470;10.394;2023-10-09T05:19:04;14.60;63.60
6078;DHT22;3067;49.470;10.394;2023-10-09T05:21:34;14.60;63.50
6078;DHT22;3067;49.470;10.394;2023-10-09T05:24:10;14.60;63.30
6078;DHT22;3067;49.470;10.394;2023-10-09T05:26:46;14.70;63.20
6078;DHT22;3067;49.470;10.394;2023-10-09T05:29:18;14.70;63.00
6078;DHT22;3067;49.470;10.394;2023-10-09T05:32:01;14.80;62.70
6078;DHT22;3067;49.470;10.394;2023-10-09T05:34:43;14.80;62.60
6078;DHT22;3067;49.470;10.394;2023-10-09T05:37:25;14.90;62.40
6078;DHT22;3067;49.470;10.394;2023-10-09T05:39:52;15.00;62.60
6078;DHT22;3067;49.470;10.394;2023-10-09T05:42:45;15.00;62.50
6078;DHT22;3067;49.470;10.394;2023-10-09T05:45:23;15.00;62.50
6078;DHT22;3067;49.470;10.394;2023-10-09T05:48:07;15.00;62.40
6078;DHT22;3067;49.470;10.394;2023-10-09T05:51:05;15.00;62.20
6078;DHT22;3067;49.470;10.394;2023-10-09T05:54:05;15.00;62.20
6078;DHT22;3067;49.470;10.394;2023-10-09T05:56:50;15.00;62.20
6078;DHT22;3067;49.470;10.394;2023-10-09T05:59:34;15.00;62.30
6078;DHT22;3067;49.470;10.394;2023-10-09T06:02:18;15.00;62.30
6078;DHT22;3067;49.470;10.394;2023-10-09T06:05:08;15.00;62.30
6078;DHT22;3067;49.470;10.394;2023-10-09T06:08:07;15.00;62.30
6078;DHT22;3067;49.470;10.394;2023-10-09T06:10:38;15.00;62.40
6078;DHT22;3067;49.470;10.394;2023-10-09T06:13:10;15.00;62.30
6078;DHT22;3067;49.470;10.394;2023-10-09T06:15:54;15.00;62.50
6078;DHT22;3067;49.470;10.394;2023-10-09T06:18:57;15.10;62.20
6078;DHT22;3067;49.470;10.394;2023-10-09T06:21:34;15.20;62.00
6078;DHT22;3067;49.470;10.394;2023-10-09T06:24:28;15.20;61.70
6078;DHT22;3067;49.470;10.394;2023-10-09T06:26:59;15.30;61.60
6078;DHT22;3067;49.470;10.394;2023-10-09T06:29:50;15.40;61.30
6078;DHT22;3067;49.470;10.394;2023-10-09T06:32:40;15.50;61.10
6078;DHT22;3067;49.470;10.394;2023-10-09T06:35:17;15.60;60.70
6078;DHT22;3067;49.470;10.394;2023-10-09T06:37:48;15.60;60.60
6078;DHT22;3067;49.470;10.394;2023-10-09T06:40:36;15.70;60.50
6078;DHT22;3067;49.470;10.394;2023-10-09T06:43:21;15.80;60.30
6078;DHT22;3067;49.470;10.394;2023-10-09T06:45:55;15.80;60.20
6078;DHT22;3067;49.470;10.394;2023-10-09T06:48:43;15.90;60.20
6078;DHT22;3067;49.470;10.394;2023-10-09T06:51:21;16.00;59.60
6078;DHT22;3067;49.470;10.394;2023-10-09T06:54:07;16.10;59.50
6078;DHT22;3067;49.470;10.394;2023-10-09T06:56:45;16.20;59.10
6078;DHT22;3067;49.470;10.394;2023-10-09T06:59:29;16.40;59.10
6078;DHT22;3067;49.470;10.394;2023-10-09T07:02:28;16.50;58.90
6078;DHT22;3067;49.470;10.394;2023-10-09T07:05:01;16.60;58.30
6078;DHT22;3067;49.470;10.394;2023-10-09T07:07:36;16.70;58.00
6078;DHT22;3067;49.470;10.394;2023-10-09T07:10:16;16.80;57.90
6078;DHT22;3067;49.470;10.394;2023-10-09T07:13:06;16.90;57.80
6078;DHT22;3067;49.470;10.394;2023-10-09T07:15:33;16.90;57.50
6078;DHT22;3067;49.470;10.394;2023-10-09T07:18:20;17.00;57.30
6078;DHT22;3067;49.470;10.394;2023-10-09T07:20:49;17.00;57.10
6078;DHT22;3067;49.470;10.394;2023-10-09T07:23:27;17.00;57.00
6078;DHT22;3067;49.470;10.394;2023-10-09T07:26:05;17.10;56.80
6078;DHT22;3067;49.470;10.394;2023-10-09T07:28:52;17.20;56.20
6078;DHT22;3067;49.470;10.394;2023-10-09T07:31:26;17.20;56.40
6078;DHT22;3067;49.470;10.394;2023-10-09T07:33:55;17.20;56.40
6078;DHT22;3067;49.470;10.394;2023-10-09T07:36:25;17.40;56.40
6078;DHT22;3067;49.470;10.394;2023-10-09T07:39:04;17.40;56.20
6078;DHT22;3067;49.470;10.394;2023-10-09T07:41:41;17.50;55.70
6078;DHT22;3067;49.470;10.394;2023-10-09T07:44:22;17.50;56.10
6078;DHT22;3067;49.470;10.394;2023-10-09T07:47:04;17.50;56.10
6078;DHT22;3067;49.470;10.394;2023-10-09T07:49:43;17.60;56.00
6078;DHT22;3067;49.470;10.394;2023-10-09T07:52:15;17.80;55.70
6078;DHT22;3067;49.470;10.394;2023-10-09T07:54:42;17.80;56.00
6078;DHT22;3067;49.470;10.394;2023-10-09T07:57:16;18.00;55.40
6078;DHT22;3067;49.470;10.394;2023-10-09T07:59:44;18.00;54.80
6078;DHT22;3067;49.470;10.394;2023-10-09T08:02:28;18.00;54.80
6078;DHT22;3067;49.470;10.394;2023-10-09T08:05:02;18.10;54.60
6078;DHT22;3067;49.470;10.394;2023-10-09T08:07:44;18.10;54.60
6078;DHT22;3067;49.470;10.394;2023-10-09T08:10:20;18.20;54.20
6078;DHT22;3067;49.470;10.394;2023-10-09T08:13:05;18.30;54.00
6078;DHT22;3067;49.470;10.394;2023-10-09T08:57:33;19.20;52.00
6078;DHT22;3067;49.470;10.394;2023-10-09T09:00:00;19.30;51.10
6078;DHT22;3067;49.470;10.394;2023-10-09T09:02:27;19.30;51.00
6078;DHT22;3067;49.470;10.394;2023-10-09T09:04:54;19.30;51.20
6078;DHT22;3067;49.470;10.394;2023-10-09T09:07:25;19.30;51.10
6078;DHT22;3067;49.470;10.394;2023-10-09T09:09:54;19.20;51.20
6078;DHT22;3067;49.470;10.394;2023-10-09T09:12:23;19.20;51.30
6078;DHT22;3067;49.470;10.394;2023-10-09T09:14:52;19.20;51.10
6078;DHT22;3067;49.470;10.394;2023-10-09T09:17:23;19.10;51.20
6078;DHT22;3067;49.470;10.394;2023-10-09T09:19:56;19.00;51.50
6078;DHT22;3067;49.470;10.394;2023-10-09T09:22:24;18.90;51.80
6078;DHT22;3067;49.470;10.394;2023-10-09T09:24:57;18.90;51.70
6078;DHT22;3067;49.470;10.394;2023-10-09T09:27:44;18.90;51.80
6078;DHT22;3067;49.470;10.394;2023-10-09T09:30:27;18.90;51.90
6078;DHT22;3067;49.470;10.394;2023-10-09T09:33:00;18.90;52.20
6078;DHT22;3067;49.470;10.394;2023-10-09T09:36:01;18.80;52.10
6078;DHT22;3067;49.470;10.394;2023-10-09T09:38:30;18.80;52.60
6078;DHT22;3067;49.470;10.394;2023-10-09T09:41:08;18.80;52.40
6078;DHT22;3067;49.470;10.394;2023-10-09T09:43:37;18.80;52.50
6078;DHT22;3067;49.470;10.394;2023-10-09T09:46:11;18.80;52.80
6078;DHT22;3067;49.470;10.394;2023-10-09T09:48:39;18.90;53.10
6078;DHT22;3067;49.470;10.394;2023-10-09T09:51:11;19.00;53.20
6078;DHT22;3067;49.470;10.394;2023-10-09T09:53:41;19.00;52.70
6078;DHT22;3067;49.470;10.394;2023-10-09T09:56:09;19.00;52.20
6078;DHT22;3067;49.470;10.394;2023-10-09T09:58:45;19.00;52.30
6078;DHT22;3067;49.470;10.394;2023-10-09T10:01:14;19.00;52.30
6078;DHT22;3067;49.470;10.394;2023-10-09T10:03:53;19.00;52.40
6078;DHT22;3067;49.470;10.394;2023-10-09T10:06:23;19.00;52.70
6078;DHT22;3067;49.470;10.394;2023-10-09T10:08:52;19.00;53.10
6078;DHT22;3067;49.470;10.394;2023-10-09T10:11:41;19.00;52.80
6078;DHT22;3067;49.470;10.394;2023-10-09T10:14:10;19.00;52.90
6078;DHT22;3067;49.470;10.394;2023-10-09T10:17:07;19.00;53.40
6078;DHT22;3067;49.470;10.394;2023-10-09T10:20:03;19.00;53.80
6078;DHT22;3067;49.470;10.394;2023-10-09T10:22:45;19.10;53.70
6078;DHT22;3067;49.470;10.394;2023-10-09T10:25:31;19.10;53.60
6078;DHT22;3067;49.470;10.394;2023-10-09T10:28:16;19.10;53.70
6078;DHT22;3067;49.470;10.394;2023-10-09T10:30:54;19.00;53.90
6078;DHT22;3067;49.470;10.394;2023-10-09T10:33:22;19.00;54.20
6078;DHT22;3067;49.470;10.394;2023-10-09T10:35:50;19.00;55.00
6078;DHT22;3067;49.470;10.394;2023-10-09T10:38:28;19.00;55.10
6078;DHT22;3067;49.470;10.394;2023-10-09T10:41:13;19.00;55.00
6078;DHT22;3067;49.470;10.394;2023-10-09T10:43:42;19.00;54.80
6078;DHT22;3067;49.470;10.394;2023-10-09T10:46:29;19.00;55.00
6078;DHT22;3067;49.470;10.394;2023-10-09T10:49:07;19.10;55.50
6078;DHT22;3067;49.470;10.394;2023-10-09T10:51:46;19.20;55.00
6078;DHT22;3067;49.470;10.394;2023-10-09T10:54:22;19.30;53.80
6078;DHT22;3067;49.470;10.394;2023-10-09T10:57:19;19.30;53.20
6078;DHT22;3067;49.470;10.394;2023-10-09T10:59:55;19.30;54.00
6078;DHT22;3067;49.470;10.394;2023-10-09T11:02:39;19.30;54.20
6078;DHT22;3067;49.470;10.394;2023-10-09T11:05:08;19.30;54.10
6078;DHT22;3067;49.470;10.394;2023-10-09T11:07:51;19.30;53.90
6078;DHT22;3067;49.470;10.394;2023-10-09T11:10:23;19.40;53.70
6078;DHT22;3067;49.470;10.394;2023-10-09T11:12:57;19.40;54.00
6078;DHT22;3067;49.470;10.394;2023-10-09T11:15:53;19.50;53.40
6078;DHT22;3067;49.470;10.394;2023-10-09T11:18:41;19.50;53.20
6078;DHT22;3067;49.470;10.394;2023-10-09T11:21:15;19.70;53.60
6078;DHT22;3067;49.470;10.394;2023-10-09T11:24:01;19.80;53.40
6078;DHT22;3067;49.470;10.394;2023-10-09T11:26:43;20.00;52.40
6078;DHT22;3067;49.470;10.394;2023-10-09T11:29:19;20.00;52.20
6078;DHT22;3067;49.470;10.394;2023-10-09T11:32:02;20.00;51.00
6078;DHT22;3067;49.470;10.394;2023-10-09T11:34:31;20.00;51.50
6078;DHT22;3067;49.470;10.394;2023-10-09T11:37:05;20.00;52.10
6078;DHT22;3067;49.470;10.394;2023-10-09T11:39:39;19.90;51.50
6078;DHT22;3067;49.470;10.394;2023-10-09T11:42:18;19.90;51.50
6078;DHT22;3067;49.470;10.394;2023-10-09T11:45:02;19.90;52.00
6078;DHT22;3067;49.470;10.394;2023-10-09T11:47:45;19.80;52.60
6078;DHT22;3067;49.470;10.394;2023-10-09T11:50:38;19.70;52.90
6078;DHT22;3067;49.470;10.394;2023-10-09T11:53:10;19.60;52.70
6078;DHT22;3067;49.470;10.394;2023-10-09T11:55:59;19.50;53.10
6078;DHT22;3067;49.470;10.394;2023-10-09T11:58:26;19.40;52.70
6078;DHT22;3067;49.470;10.394;2023-10-09T12:00:54;19.40;52.80
6078;DHT22;3067;49.470;10.394;2023-10-09T12:03:25;19.30;53.00
6078;DHT22;3067;49.470;10.394;2023-10-09T12:05:56;19.30;52.80
6078;DHT22;3067;49.470;10.394;2023-10-09T12:08:25;19.30;52.80
6078;DHT22;3067;49.470;10.394;2023-10-09T12:10:54;19.30;52.90
6078;DHT22;3067;49.470;10.394;2023-10-09T12:13:25;19.30;52.40
6078;DHT22;3067;49.470;10.394;2023-10-09T12:15:52;19.30;52.40
6078;DHT22;3067;49.470;10.394;2023-10-09T12:18:20;19.40;52.70
6078;DHT22;3067;49.470;10.394;2023-10-09T12:20:49;19.40;52.60
6078;DHT22;3067;49.470;10.394;2023-10-09T12:23:29;19.50;52.10
6078;DHT22;3067;49.470;10.394;2023-10-09T12:26:01;19.50;52.10
6078;DHT22;3067;49.470;10.394;2023-10-09T12:28:29;19.70;50.40
6078;DHT22;3067;49.470;10.394;2023-10-09T12:30:59;19.90;49.70
6078;DHT22;3067;49.470;10.394;2023-10-09T12:33:28;20.00;49.30
6078;DHT22;3067;49.470;10.394;2023-10-09T12:35:57;20.10;49.10
6078;DHT22;3067;49.470;10.394;2023-10-09T12:38:25;20.20;49.00
6078;DHT22;3067;49.470;10.394;2023-10-09T12:41:02;20.30;47.20
6078;DHT22;3067;49.470;10.394;2023-10-09T12:43:34;20.50;47.20
6078;DHT22;3067;49.470;10.394;2023-10-09T12:46:05;20.60;47.30
6078;DHT22;3067;49.470;10.394;2023-10-09T12:48:33;20.60;45.40
6078;DHT22;3067;49.470;10.394;2023-10-09T12:51:01;20.60;45.00
6078;DHT22;3067;49.470;10.394;2023-10-09T12:53:32;20.60;44.90
6078;DHT22;3067;49.470;10.394;2023-10-09T12:55:59;20.70;44.10
6078;DHT22;3067;49.470;10.394;2023-10-09T12:58:27;20.70;45.40
6078;DHT22;3067;49.470;10.394;2023-10-09T13:00:55;20.70;43.80
6078;DHT22;3067;49.470;10.394;2023-10-09T13:03:22;20.70;43.10
6078;DHT22;3067;49.470;10.394;2023-10-09T13:05:54;20.70;43.70
6078;DHT22;3067;49.470;10.394;2023-10-09T13:08:22;20.60;43.60
6078;DHT22;3067;49.470;10.394;2023-10-09T13:10:52;20.60;44.00
6078;DHT22;3067;49.470;10.394;2023-10-09T13:13:27;20.70;44.10
6078;DHT22;3067;49.470;10.394;2023-10-09T13:16:08;20.90;43.60
6078;DHT22;3067;49.470;10.394;2023-10-09T13:18:38;21.00;43.80
6078;DHT22;3067;49.470;10.394;2023-10-09T13:21:05;21.10;44.50
6078;DHT22;3067;49.470;10.394;2023-10-09T13:23:33;21.10;43.80
6078;DHT22;3067;49.470;10.394;2023-10-09T13:26:12;21.20;43.30
6078;DHT22;3067;49.470;10.394;2023-10-09T13:28:52;21.10;43.20
6078;DHT22;3067;49.470;10.394;2023-10-09T13:31:20;21.10;43.40
6078;DHT22;3067;49.470;10.394;2023-10-09T13:33:48;21.10;43.20
6078;DHT22;3067;49.470;10.394;2023-10-09T13:36:20;21.10;43.50
6078;DHT22;3067;49.470;10.394;2023-10-09T13:38:55;21.10;43.30
6078;DHT22;3067;49.470;10.394;2023-10-09T13:41:22;21.00;42.80
6078;DHT22;3067;49.470;10.394;2023-10-09T13:43:55;21.00;43.30
6078;DHT22;3067;49.470;10.394;2023-10-09T13:46:23;20.90;43.80
6078;DHT22;3067;49.470;10.394;2023-10-09T13:48:50;20.90;43.80
6078;DHT22;3067;49.470;10.394;2023-10-09T13:51:18;20.80;44.30
6078;DHT22;3067;49.470;10.394;2023-10-09T13:53:49;20.80;44.00
6078;DHT22;3067;49.470;10.394;2023-10-09T13:56:17;20.90;44.60
6078;DHT22;3067;49.470;10.394;2023-10-09T13:58:46;20.90;44.20
6078;DHT22;3067;49.470;10.394;2023-10-09T14:01:14;20.90;43.80
6078;DHT22;3067;49.470;10.394;2023-10-09T14:03:54;20.90;44.60
6078;DHT22;3067;49.470;10.394;2023-10-09T14:06:22;21.00;44.00
6078;DHT22;3067;49.470;10.394;2023-10-09T14:08:58;21.00;43.40
6078;DHT22;3067;49.470;10.394;2023-10-09T14:11:25;21.10;42.40
6078;DHT22;3067;49.470;10.394;2023-10-09T14:13:52;21.00;41.90
6078;DHT22;3067;49.470;10.394;2023-10-09T14:16:21;21.00;42.00
6078;DHT22;3067;49.470;10.394;2023-10-09T14:18:53;21.00;41.80
6078;DHT22;3067;49.470;10.394;2023-10-09T14:21:24;21.00;42.30
6078;DHT22;3067;49.470;10.394;2023-10-09T14:23:52;20.90;41.50
6078;DHT22;3067;49.470;10.394;2023-10-09T14:26:23;20.90;41.30
6078;DHT22;3067;49.470;10.394;2023-10-09T14:28:51;20.90;42.10
6078;DHT22;3067;49.470;10.394;2023-10-09T14:31:21;20.80;41.50
6078;DHT22;3067;49.470;10.394;2023-10-09T14:33:53;20.80;40.20
6078;DHT22;3067;49.470;10.394;2023-10-09T14:36:20;20.80;41.00
6078;DHT22;3067;49.470;10.394;2023-10-09T14:38:49;20.80;40.60
6078;DHT22;3067;49.470;10.394;2023-10-09T14:41:19;20.70;40.20
6078;DHT22;3067;49.470;10.394;2023-10-09T14:43:49;20.70;40.40
6078;DHT22;3067;49.470;10.394;2023-10-09T14:46:16;20.70;40.40
6078;DHT22;3067;49.470;10.394;2023-10-09T14:48:50;20.70;40.30
6078;DHT22;3067;49.470;10.394;2023-10-09T14:51:19;20.60;40.30
6078;DHT22;3067;49.470;10.394;2023-10-09T14:53:56;20.70;40.40
6078;DHT22;3067;49.470;10.394;2023-10-09T14:56:27;20.60;40.20
6078;DHT22;3067;49.470;10.394;2023-10-09T14:58:57;20.70;40.50
6078;DHT22;3067;49.470;10.394;2023-10-09T15:01:25;20.70;40.70
6078;DHT22;3067;49.470;10.394;2023-10-09T15:03:57;20.60;40.90
6078;DHT22;3067;49.470;10.394;2023-10-09T15:06:26;20.60;41.20
6078;DHT22;3067;49.470;10.394;2023-10-09T15:08:56;20.60;41.60
6078;DHT22;3067;49.470;10.394;2023-10-09T15:11:25;20.50;41.70
6078;DHT22;3067;49.470;10.394;2023-10-09T15:13:54;20.50;42.00
6078;DHT22;3067;49.470;10.394;2023-10-09T15:16:23;20.50;42.50
6078;DHT22;3067;49.470;10.394;2023-10-09T15:18:53;20.50;42.60
6078;DHT22;3067;49.470;10.394;2023-10-09T15:21:24;20.50;42.70
6078;DHT22;3067;49.470;10.394;2023-10-09T15:23:53;20.50;43.00
6078;DHT22;3067;49.470;10.394;2023-10-09T15:26:21;20.50;43.50
6078;DHT22;3067;49.470;10.394;2023-10-09T15:28:50;20.50;43.70
6078;DHT22;3067;49.470;10.394;2023-10-09T15:31:17;20.50;44.20
6078;DHT22;3067;49.470;10.394;2023-10-09T15:33:47;20.50;44.60
6078;DHT22;3067;49.470;10.394;2023-10-09T15:36:18;20.50;44.80
6078;DHT22;3067;49.470;10.394;2023-10-09T15:38:47;20.50;45.00
6078;DHT22;3067;49.470;10.394;2023-10-09T15:41:15;20.50;44.90
6078;DHT22;3067;49.470;10.394;2023-10-09T15:43:43;20.50;45.00
6078;DHT22;3067;49.470;10.394;2023-10-09T15:46:12;20.50;45.40
6078;DHT22;3067;49.470;10.394;2023-10-09T15:48:40;20.50;45.60
6078;DHT22;3067;49.470;10.394;2023-10-09T15:51:09;20.50;45.80
6078;DHT22;3067;49.470;10.394;2023-10-09T15:53:40;20.50;45.90
6078;DHT22;3067;49.470;10.394;2023-10-09T15:56:09;20.50;45.80
6078;DHT22;3067;49.470;10.394;2023-10-09T15:58:38;20.50;46.10
6078;DHT22;3067;49.470;10.394;2023-10-09T16:01:09;20.50;45.90
6078;DHT22;3067;49.470;10.394;2023-10-09T16:03:39;20.50;46.20
6078;DHT22;3067;49.470;10.394;2023-10-09T16:06:06;20.60;45.90
6078;DHT22;3067;49.470;10.394;2023-10-09T16:08:39;20.70;46.00
6078;DHT22;3067;49.470;10.394;2023-10-09T16:11:09;20.70;45.60
6078;DHT22;3067;49.470;10.394;2023-10-09T16:13:38;20.70;46.20
6078;DHT22;3067;49.470;10.394;2023-10-09T16:16:05;20.80;46.50
6078;DHT22;3067;49.470;10.394;2023-10-09T16:18:34;20.70;46.20
6078;DHT22;3067;49.470;10.394;2023-10-09T16:21:03;20.70;46.80
6078;DHT22;3067;49.470;10.394;2023-10-09T16:23:33;20.70;46.10
6078;DHT22;3067;49.470;10.394;2023-10-09T16:26:00;20.60;45.50
6078;DHT22;3067;49.470;10.394;2023-10-09T16:28:31;20.60;46.20
6078;DHT22;3067;49.470;10.394;2023-10-09T16:30:59;20.50;46.30
6078;DHT22;3067;49.470;10.394;2023-10-09T16:33:26;20.30;46.30
6078;DHT22;3067;49.470;10.394;2023-10-09T16:35:54;20.30;46.50
6078;DHT22;3067;49.470;10.394;2023-10-09T16:38:25;20.30;46.90
6078;DHT22;3067;49.470;10.394;2023-10-09T16:40:53;20.30;46.90
6078;DHT22;3067;49.470;10.394;2023-10-09T16:43:21;20.30;47.30
6078;DHT22;3067;49.470;10.394;2023-10-09T16:45:53;20.20;47.50
6078;DHT22;3067;49.470;10.394;2023-10-09T16:48:24;20.10;47.30
6078;DHT22;3067;49.470;10.394;2023-10-09T16:50:54;20.10;47.30
6078;DHT22;3067;49.470;10.394;2023-10-09T16:53:21;20.00;47.60
6078;DHT22;3067;49.470;10.394;2023-10-09T16:55:48;20.00;48.30
6078;DHT22;3067;49.470;10.394;2023-10-09T16:58:20;20.00;48.30
6078;DHT22;3067;49.470;10.394;2023-10-09T17:00:48;20.00;48.30
6078;DHT22;3067;49.470;10.394;2023-10-09T17:03:21;20.00;48.30
6078;DHT22;3067;49.470;10.394;2023-10-09T17:05:53;20.00;48.40
6078;DHT22;3067;49.470;10.394;2023-10-09T17:08:24;19.90;48.20
6078;DHT22;3067;49.470;10.394;2023-10-09T17:10:56;19.80;47.90
6078;DHT22;3067;49.470;10.394;2023-10-09T17:13:23;19.70;48.00